Wetterdaten: Freitag, 27.07.2012
Datum Zeit Temperatur Luftfeuchte Regen Wind Richtung Richtung Taupunkt Windchill Windben
27.07.2012 00:00 16,5 C 80 % 0,0 l/m 0,0 km/h (0 Bft) O 90 13,0 C 16,6 C 0,0 km/h (0 Bft)
27.07.2012 00:05 16,5 C 79 % 0,0 l/m 0,0 km/h (0 Bft) SO 135 12,8 C 16,6 C 0,0 km/h (0 Bft)
27.07.2012 00:10 16,4 C 79 % 0,0 l/m 0,0 km/h (0 Bft) O-SO 112 12,7 C 16,6 C 0,0 km/h (0 Bft)
27.07.2012 00:15 16,5 C 80 % 0,0 l/m 0,0 km/h (0 Bft) W-SW 247 13,0 C 16,4 C 0,0 km/h (0 Bft)
27.07.2012 00:20 16,1 C 79 % 0,0 l/m 0,0 km/h (0 Bft) O 90 12,5 C 16,2 C 0,0 km/h (0 Bft)
27.07.2012 00:25 16,0 C 79 % 0,0 l/m 0,0 km/h (0 Bft) NO 45 12,4 C 16,0 C 0,0 km/h (0 Bft)
27.07.2012 00:30 16,1 C 80 % 0,0 l/m 0,0 km/h (0 Bft) N 360 12,6 C 15,8 C 0,0 km/h (0 Bft)
27.07.2012 00:35 15,9 C 80 % 0,0 l/m 0,0 km/h (0 Bft) O-SO 112 12,5 C 15,6 C 0,0 km/h (0 Bft)
27.07.2012 00:40 15,7 C 80 % 0,0 l/m 0,0 km/h (0 Bft) W-NW 292 12,3 C 15,4 C 0,0 km/h (0 Bft)
27.07.2012 00:45 15,4 C 81 % 0,0 l/m 0,0 km/h (0 Bft) N 360 12,2 C 15,2 C 0,0 km/h (0 Bft)
27.07.2012 00:50 15,4 C 81 % 0,0 l/m 0,0 km/h (0 Bft) W-NW 292 12,2 C 15,1 C 0,0 km/h (0 Bft)
27.07.2012 00:55 15,5 C 81 % 0,0 l/m 0,0 km/h (0 Bft) N 360 12,3 C 15,1 C 0,0 km/h (0 Bft)
27.07.2012 01:00 15,5 C 81 % 0,0 l/m 0,0 km/h (0 Bft) S-SW 202 12,3 C 15,0 C 0,0 km/h (0 Bft)
27.07.2012 01:05 15,3 C 81 % 0,0 l/m 0,0 km/h (0 Bft) S 180 12,1 C 15,0 C 0,0 km/h (0 Bft)
27.07.2012 01:10 15,5 C 82 % 0,0 l/m 0,0 km/h (0 Bft) O-SO 112 12,4 C 15,0 C 0,0 km/h (0 Bft)
27.07.2012 01:15 15,6 C 82 % 0,0 l/m 0,0 km/h (0 Bft) SW 225 12,5 C 15,0 C 0,0 km/h (0 Bft)
27.07.2012 01:20 15,4 C 82 % 0,0 l/m 0,0 km/h (0 Bft) NO 45 12,3 C 15,0 C 0,0 km/h (0 Bft)
27.07.2012 01:25 15,1 C 82 % 0,0 l/m 0,0 km/h (0 Bft) S 180 12,0 C 14,8 C 0,0 km/h (0 Bft)
27.07.2012 01:30 14,9 C 82 % 0,0 l/m 0,0 km/h (0 Bft) O-NO 67 11,9 C 14,6 C 0,0 km/h (0 Bft)
27.07.2012 01:35 14,9 C 82 % 0,0 l/m 0,0 km/h (0 Bft) S-SO 157 11,9 C 14,6 C 0,0 km/h (0 Bft)
27.07.2012 01:40 14,8 C 82 % 0,0 l/m 0,0 km/h (0 Bft) W-SW 247 11,8 C 14,6 C 0,0 km/h (0 Bft)
27.07.2012 01:45 14,8 C 83 % 0,0 l/m 0,0 km/h (0 Bft) N 360 11,9 C 14,8 C 0,0 km/h (0 Bft)
27.07.2012 01:50 14,9 C 83 % 0,0 l/m 0,0 km/h (0 Bft) W 270 12,0 C 15,0 C 0,0 km/h (0 Bft)
27.07.2012 01:55 15,1 C 83 % 0,0 l/m 0,0 km/h (0 Bft) N-NO 22 12,2 C 15,1 C 0,0 km/h (0 Bft)
27.07.2012 02:00 15,1 C 82 % 0,0 l/m 0,0 km/h (0 Bft) S-SW 202 12,0 C 15,1 C 0,0 km/h (0 Bft)
27.07.2012 02:05 15,1 C 82 % 0,0 l/m 0,0 km/h (0 Bft) S-SW 202 12,0 C 15,2 C 0,0 km/h (0 Bft)
27.07.2012 02:10 15,2 C 83 % 0,0 l/m 0,0 km/h (0 Bft) W-SW 247 12,3 C 15,3 C 0,0 km/h (0 Bft)
27.07.2012 02:15 15,6 C 83 % 0,0 l/m 0,8 km/h (0 Bft) W-NW 292 12,7 C 15,5 C 2,7 km/h (1 Bft)
27.07.2012 02:20 15,7 C 83 % 0,0 l/m 1,3 km/h (1 Bft) W-SW 247 12,8 C 15,6 C 0,0 km/h (0 Bft)
27.07.2012 02:25 15,3 C 83 % 0,0 l/m 0,6 km/h (0 Bft) O-NO 67 12,4 C 15,4 C 0,0 km/h (0 Bft)
27.07.2012 02:30 15,1 C 83 % 0,0 l/m 0,2 km/h (0 Bft) N 360 12,2 C 15,1 C 0,0 km/h (0 Bft)
27.07.2012 02:35 15,3 C 83 % 0,0 l/m 0,5 km/h (0 Bft) N-NO 22 12,4 C 15,0 C 2,1 km/h (1 Bft)
27.07.2012 02:40 15,7 C 83 % 0,0 l/m 1,6 km/h (1 Bft) N 360 12,8 C 15,3 C 5,0 km/h (1 Bft)
27.07.2012 02:45 15,1 C 82 % 0,0 l/m 1,3 km/h (1 Bft) N-NO 22 12,0 C 15,4 C 0,0 km/h (0 Bft)
27.07.2012 02:50 15,5 C 83 % 0,0 l/m 0,5 km/h (0 Bft) O 90 12,6 C 15,3 C 0,0 km/h (0 Bft)
27.07.2012 02:55 15,3 C 82 % 0,0 l/m 0,3 km/h (0 Bft) N 360 12,2 C 15,0 C 1,9 km/h (1 Bft)
27.07.2012 03:00 15,4 C 82 % 0,0 l/m 0,3 km/h (0 Bft) W-NW 292 12,3 C 14,9 C 0,0 km/h (0 Bft)
27.07.2012 03:05 14,8 C 82 % 0,0 l/m 0,2 km/h (0 Bft) NO 45 11,8 C 14,7 C 0,0 km/h (0 Bft)
27.07.2012 03:10 14,7 C 82 % 0,0 l/m 0,0 km/h (0 Bft) O-SO 112 11,7 C 14,5 C 0,0 km/h (0 Bft)
27.07.2012 03:15 14,0 C 84 % 0,0 l/m 0,0 km/h (0 Bft) N-NO 22 11,3 C 14,1 C 0,0 km/h (0 Bft)
27.07.2012 03:20 14,3 C 84 % 0,0 l/m 0,2 km/h (0 Bft) NO 45 11,6 C 13,9 C 1,8 km/h (1 Bft)
27.07.2012 03:25 14,7 C 84 % 0,0 l/m 0,6 km/h (0 Bft) S-SW 202 12,0 C 13,9 C 2,9 km/h (1 Bft)
27.07.2012 03:30 14,0 C 83 % 0,0 l/m 0,8 km/h (0 Bft) N-NO 22 11,2 C 13,8 C 0,0 km/h (0 Bft)
27.07.2012 03:35 14,3 C 84 % 0,0 l/m 0,6 km/h (0 Bft) W-NW 292 11,6 C 13,7 C 0,0 km/h (0 Bft)
27.07.2012 03:40 13,8 C 84 % 0,0 l/m 0,3 km/h (0 Bft) S-SO 157 11,1 C 13,5 C 0,0 km/h (0 Bft)
27.07.2012 03:45 13,3 C 84 % 0,0 l/m 0,0 km/h (0 Bft) S-SW 202 10,7 C 13,1 C 0,0 km/h (0 Bft)
27.07.2012 03:50 13,0 C 85 % 0,0 l/m 0,0 km/h (0 Bft) NO 45 10,5 C 12,9 C 0,0 km/h (0 Bft)
27.07.2012 03:55 13,0 C 86 % 0,0 l/m 0,0 km/h (0 Bft) N-NO 22 10,7 C 12,7 C 1,9 km/h (1 Bft)
27.07.2012 04:00 13,2 C 86 % 0,0 l/m 0,2 km/h (0 Bft) O 90 10,9 C 12,7 C 0,0 km/h (0 Bft)
27.07.2012 04:05 13,4 C 86 % 0,0 l/m 0,2 km/h (0 Bft) NW 315 11,1 C 12,7 C 0,0 km/h (0 Bft)
27.07.2012 04:10 13,4 C 87 % 0,0 l/m 0,2 km/h (0 Bft) NW 315 11,3 C 12,7 C 0,0 km/h (0 Bft)
27.07.2012 04:15 12,9 C 87 % 0,0 l/m 0,2 km/h (0 Bft) SO 135 10,8 C 12,7 C 0,0 km/h (0 Bft)
27.07.2012 04:20 12,7 C 87 % 0,0 l/m 0,0 km/h (0 Bft) SO 135 10,6 C 12,6 C 0,0 km/h (0 Bft)
27.07.2012 04:25 12,7 C 88 % 0,0 l/m 0,2 km/h (0 Bft) NO 45 10,8 C 12,4 C 0,0 km/h (0 Bft)
27.07.2012 04:30 12,9 C 88 % 0,0 l/m 0,2 km/h (0 Bft) N-NO 22 11,0 C 12,4 C 0,0 km/h (0 Bft)
27.07.2012 04:35 13,0 C 88 % 0,0 l/m 0,2 km/h (0 Bft) O-NO 67 11,1 C 12,5 C 0,0 km/h (0 Bft)
27.07.2012 04:40 12,8 C 88 % 0,0 l/m 0,0 km/h (0 Bft) S-SO 157 10,9 C 12,4 C 0,0 km/h (0 Bft)
27.07.2012 04:45 12,5 C 88 % 0,0 l/m 0,0 km/h (0 Bft) W-SW 247 10,6 C 12,3 C 0,0 km/h (0 Bft)
27.07.2012 04:50 12,4 C 88 % 0,0 l/m 0,2 km/h (0 Bft) W 270 10,5 C 12,2 C 2,3 km/h (1 Bft)
27.07.2012 04:55 12,4 C 88 % 0,0 l/m 0,2 km/h (0 Bft) N-NO 22 10,5 C 12,1 C 1,6 km/h (1 Bft)
27.07.2012 05:00 13,0 C 88 % 0,0 l/m 0,3 km/h (0 Bft) N-NW 337 11,1 C 12,2 C 0,0 km/h (0 Bft)
27.07.2012 05:05 13,3 C 88 % 0,0 l/m 0,2 km/h (0 Bft) W-SW 247 11,4 C 12,4 C 0,0 km/h (0 Bft)
27.07.2012 05:10 12,8 C 88 % 0,0 l/m 0,0 km/h (0 Bft) O-SO 112 10,9 C 12,4 C 0,0 km/h (0 Bft)
27.07.2012 05:15 12,6 C 88 % 0,0 l/m 0,0 km/h (0 Bft) NW 315 10,7 C 12,2 C 0,0 km/h (0 Bft)
27.07.2012 05:20 12,4 C 88 % 0,0 l/m 0,0 km/h (0 Bft) S-SW 202 10,5 C 12,2 C 0,0 km/h (0 Bft)
27.07.2012 05:25 12,3 C 88 % 0,0 l/m 0,0 km/h (0 Bft) O-SO 112 10,4 C 12,1 C 0,0 km/h (0 Bft)
27.07.2012 05:30 12,3 C 88 % 0,0 l/m 0,0 km/h (0 Bft) O-NO 67 10,4 C 12,1 C 0,0 km/h (0 Bft)
27.07.2012 05:35 12,6 C 88 % 0,0 l/m 0,0 km/h (0 Bft) SW 225 10,7 C 12,0 C 0,0 km/h (0 Bft)
27.07.2012 05:40 12,3 C 88 % 0,0 l/m 0,0 km/h (0 Bft) W-NW 292 10,4 C 11,9 C 0,0 km/h (0 Bft)
27.07.2012 05:45 12,1 C 88 % 0,0 l/m 0,0 km/h (0 Bft) N-NW 337 10,2 C 11,9 C 0,0 km/h (0 Bft)
27.07.2012 05:50 12,0 C 88 % 0,0 l/m 0,0 km/h (0 Bft) S 180 10,1 C 11,9 C 0,0 km/h (0 Bft)
27.07.2012 05:55 12,1 C 88 % 0,0 l/m 0,0 km/h (0 Bft) W 270 10,2 C 11,9 C 0,0 km/h (0 Bft)
27.07.2012 06:00 12,1 C 89 % 0,0 l/m 0,0 km/h (0 Bft) N-NW 337 10,3 C 11,9 C 0,0 km/h (0 Bft)
27.07.2012 06:05 12,4 C 89 % 0,0 l/m 0,3 km/h (0 Bft) N 360 10,6 C 12,0 C 0,0 km/h (0 Bft)
27.07.2012 06:10 12,7 C 89 % 0,0 l/m 0,3 km/h (0 Bft) S-SO 157 10,9 C 12,3 C 0,0 km/h (0 Bft)
27.07.2012 06:15 13,1 C 89 % 0,0 l/m 0,0 km/h (0 Bft) N-NW 337 11,3 C 12,4 C 0,0 km/h (0 Bft)
27.07.2012 06:20 12,9 C 89 % 0,0 l/m 0,0 km/h (0 Bft) N-NW 337 11,1 C 12,5 C 0,0 km/h (0 Bft)
27.07.2012 06:25 12,8 C 88 % 0,0 l/m 0,0 km/h (0 Bft) N-NO 22 10,9 C 12,6 C 0,0 km/h (0 Bft)
27.07.2012 06:30 12,8 C 88 % 0,0 l/m 0,0 km/h (0 Bft) W-SW 247 10,9 C 12,7 C 0,0 km/h (0 Bft)
27.07.2012 06:35 13,2 C 88 % 0,0 l/m 0,0 km/h (0 Bft) N 360 11,3 C 13,1 C 0,0 km/h (0 Bft)
27.07.2012 06:40 13,4 C 88 % 0,0 l/m 0,0 km/h (0 Bft) W-NW 292 11,5 C 14,3 C 0,0 km/h (0 Bft)
27.07.2012 06:45 15,5 C 87 % 0,0 l/m 0,2 km/h (0 Bft) S-SW 202 13,3 C 16,2 C 2,1 km/h (1 Bft)
27.07.2012 06:50 17,1 C 84 % 0,0 l/m 0,2 km/h (0 Bft) O-SO 112 14,4 C 17,1 C 0,0 km/h (0 Bft)
27.07.2012 06:55 18,5 C 80 % 0,0 l/m 0,3 km/h (0 Bft) S-SO 157 15,0 C 18,4 C 0,0 km/h (0 Bft)
27.07.2012 07:00 19,2 C 79 % 0,0 l/m 0,2 km/h (0 Bft) O-SO 112 15,5 C 19,5 C 0,0 km/h (0 Bft)
27.07.2012 07:05 20,0 C 75 % 0,0 l/m 0,0 km/h (0 Bft) O 90 15,4 C 20,5 C 0,0 km/h (0 Bft)
27.07.2012 07:10 20,1 C 73 % 0,0 l/m 0,0 km/h (0 Bft) W-NW 292 15,1 C 21,3 C 0,0 km/h (0 Bft)
27.07.2012 07:15 19,9 C 68 % 0,0 l/m 0,0 km/h (0 Bft) NO 45 13,8 C 21,8 C 0,0 km/h (0 Bft)
27.07.2012 07:20 19,8 C 64 % 0,0 l/m 0,0 km/h (0 Bft) NW 315 12,8 C 22,0 C 0,0 km/h (0 Bft)
27.07.2012 07:25 20,7 C 66 % 0,0 l/m 0,0 km/h (0 Bft) W 270 14,1 C 22,2 C 0,0 km/h (0 Bft)
27.07.2012 07:30 21,2 C 66 % 0,0 l/m 0,0 km/h (0 Bft) NW 315 14,6 C 22,5 C 0,0 km/h (0 Bft)
27.07.2012 07:35 22,1 C 63 % 0,0 l/m 0,0 km/h (0 Bft) N 360 14,7 C 23,4 C 0,0 km/h (0 Bft)
27.07.2012 07:40 22,5 C 63 % 0,0 l/m 0,0 km/h (0 Bft) N-NW 337 15,1 C 23,9 C 0,0 km/h (0 Bft)
27.07.2012 07:45 23,1 C 59 % 0,0 l/m 0,0 km/h (0 Bft) NO 45 14,6 C 24,5 C 0,0 km/h (0 Bft)
27.07.2012 07:50 24,2 C 58 % 0,0 l/m 0,0 km/h (0 Bft) N 360 15,4 C 25,0 C 0,0 km/h (0 Bft)
27.07.2012 07:55 23,7 C 58 % 0,0 l/m 0,0 km/h (0 Bft) N 360 14,9 C 25,5 C 0,0 km/h (0 Bft)
27.07.2012 08:00 24,7 C 58 % 0,0 l/m 0,0 km/h (0 Bft) N-NW 337 15,9 C 25,9 C 0,0 km/h (0 Bft)
27.07.2012 08:05 25,9 C 57 % 0,0 l/m 0,0 km/h (0 Bft) S 180 16,7 C 26,9 C 0,0 km/h (0 Bft)
27.07.2012 08:10 25,6 C 56 % 0,0 l/m 0,0 km/h (0 Bft) NO 45 16,2 C 27,6 C 2,1 km/h (1 Bft)
27.07.2012 08:15 26,3 C 52 % 0,0 l/m 0,0 km/h (0 Bft) N 360 15,6 C 28,3 C 0,0 km/h (0 Bft)
27.07.2012 08:20 26,5 C 51 % 0,0 l/m 0,0 km/h (0 Bft) O-SO 112 15,5 C 28,8 C 0,0 km/h (0 Bft)
27.07.2012 08:25 26,5 C 50 % 0,0 l/m 0,0 km/h (0 Bft) W-NW 292 15,2 C 29,3 C 0,0 km/h (0 Bft)
27.07.2012 08:30 26,1 C 50 % 0,0 l/m 0,3 km/h (0 Bft) N-NW 337 14,8 C 28,9 C 0,0 km/h (0 Bft)
27.07.2012 08:35 26,9 C 50 % 0,0 l/m 0,5 km/h (0 Bft) S 180 15,8 C 28,6 C 0,0 km/h (0 Bft)
27.07.2012 08:40 26,3 C 50 % 0,0 l/m 0,3 km/h (0 Bft) SW 225 15,9 C 29,2 C 0,0 km/h (0 Bft)
27.07.2012 08:45 25,7 C 49 % 0,0 l/m 0,0 km/h (0 Bft) O 90 15,8 C 29,9 C 0,0 km/h (0 Bft)
27.07.2012 08:50 25,2 C 49 % 0,0 l/m 0,0 km/h (0 Bft) N-NW 337 16,5 C 30,5 C 0,0 km/h (0 Bft)
27.07.2012 08:55 25,5 C 48 % 0,0 l/m 0,0 km/h (0 Bft) S-SW 202 16,8 C 31,1 C 0,0 km/h (0 Bft)
27.07.2012 09:00 25,5 C 48 % 0,0 l/m 0,2 km/h (0 Bft) W 270 16,4 C 31,2 C 0,0 km/h (0 Bft)
27.07.2012 09:05 25,7 C 46 % 0,0 l/m 0,2 km/h (0 Bft) O-SO 112 15,9 C 31,4 C 0,0 km/h (0 Bft)
27.07.2012 09:10 25,5 C 47 % 0,0 l/m 0,0 km/h (0 Bft) S 180 16,3 C 32,0 C 0,0 km/h (0 Bft)
27.07.2012 09:15 25,7 C 46 % 0,0 l/m 0,0 km/h (0 Bft) O-SO 112 15,6 C 32,8 C 0,0 km/h (0 Bft)
27.07.2012 09:20 25,8 C 47 % 0,0 l/m 0,0 km/h (0 Bft) W-NW 292 15,6 C 32,8 C 0,0 km/h (0 Bft)
27.07.2012 09:25 26,1 C 46 % 0,0 l/m 0,0 km/h (0 Bft) N-NO 22 16,1 C 32,5 C 0,0 km/h (0 Bft)
27.07.2012 09:30 26,3 C 47 % 0,0 l/m 0,0 km/h (0 Bft) O 90 17,0 C 32,5 C 0,0 km/h (0 Bft)
27.07.2012 09:35 26,6 C 46 % 0,0 l/m 0,0 km/h (0 Bft) N-NW 337 17,1 C 33,4 C 0,0 km/h (0 Bft)
27.07.2012 09:40 26,5 C 46 % 0,0 l/m 0,0 km/h (0 Bft) W-NW 292 16,9 C 33,5 C 2,9 km/h (1 Bft)
27.07.2012 09:45 26,9 C 44 % 0,0 l/m 0,6 km/h (0 Bft) N-NW 337 16,2 C 32,8 C 0,0 km/h (0 Bft)
27.07.2012 09:50 27,1 C 45 % 0,0 l/m 1,1 km/h (1 Bft) NO 45 16,2 C 32,5 C 3,1 km/h (1 Bft)
27.07.2012 09:55 27,3 C 45 % 0,0 l/m 1,3 km/h (1 Bft) W-NW 292 16,6 C 32,3 C 2,9 km/h (1 Bft)
27.07.2012 10:00 27,5 C 44 % 0,0 l/m 1,3 km/h (1 Bft) S-SW 202 16,7 C 32,6 C 0,0 km/h (0 Bft)
27.07.2012 10:05 28,0 C 43 % 0,0 l/m 0,5 km/h (0 Bft) N 360 15,5 C 33,1 C 0,0 km/h (0 Bft)
27.07.2012 10:10 28,0 C 45 % 0,0 l/m 0,0 km/h (0 Bft) S 180 17,4 C 33,5 C 0,0 km/h (0 Bft)
27.07.2012 10:15 28,2 C 43 % 0,0 l/m 0,2 km/h (0 Bft) W-NW 292 15,8 C 34,2 C 1,9 km/h (1 Bft)
27.07.2012 10:20 28,4 C 43 % 0,0 l/m 0,6 km/h (0 Bft) NO 45 15,8 C 33,8 C 0,0 km/h (0 Bft)
27.07.2012 10:25 28,9 C 42 % 0,0 l/m 1,1 km/h (1 Bft) W-SW 247 15,8 C 33,9 C 1,9 km/h (1 Bft)
27.07.2012 10:30 29,2 C 41 % 0,0 l/m 0,8 km/h (0 Bft) N 360 15,4 C 34,1 C 2,1 km/h (1 Bft)
27.07.2012 10:35 29,1 C 41 % 0,0 l/m 1,8 km/h (1 Bft) NW 315 15,3 C 33,6 C 2,3 km/h (1 Bft)
27.07.2012 10:40 29,1 C 40 % 0,0 l/m 1,9 km/h (1 Bft) N-NO 22 14,9 C 33,2 C 0,0 km/h (0 Bft)
27.07.2012 10:45 29,6 C 42 % 0,0 l/m 1,3 km/h (1 Bft) S 180 16,1 C 33,7 C 5,8 km/h (2 Bft)
27.07.2012 10:50 29,9 C 41 % 0,0 l/m 1,8 km/h (1 Bft) O-SO 112 15,8 C 33,5 C 0,0 km/h (0 Bft)
27.07.2012 10:55 30,0 C 39 % 0,0 l/m 2,6 km/h (1 Bft) S 180 15,1 C 33,6 C 3,9 km/h (1 Bft)
27.07.2012 11:00 30,3 C 40 % 0,0 l/m 1,9 km/h (1 Bft) S 180 15,6 C 33,5 C 0,0 km/h (0 Bft)
27.07.2012 11:05 30,5 C 39 % 0,0 l/m 2,4 km/h (1 Bft) S 180 15,3 C 33,5 C 2,6 km/h (1 Bft)
27.07.2012 11:10 30,6 C 39 % 0,0 l/m 1,9 km/h (1 Bft) N-NW 337 15,7 C 33,5 C 7,6 km/h (2 Bft)
27.07.2012 11:15 31,0 C 38 % 0,0 l/m 1,9 km/h (1 Bft) S-SO 157 15,2 C 33,5 C 2,9 km/h (1 Bft)
27.07.2012 11:20 30,9 C 38 % 0,0 l/m 2,3 km/h (1 Bft) S 180 14,9 C 33,6 C 2,1 km/h (1 Bft)
27.07.2012 11:25 30,1 C 38 % 0,0 l/m 2,6 km/h (1 Bft) SO 135 14,2 C 33,2 C 0,0 km/h (0 Bft)
27.07.2012 11:30 30,8 C 39 % 0,0 l/m 1,9 km/h (1 Bft) O-NO 67 15,2 C 33,4 C 2,1 km/h (1 Bft)
27.07.2012 11:35 30,4 C 37 % 0,0 l/m 1,9 km/h (1 Bft) S-SO 157 14,0 C 33,5 C 0,0 km/h (0 Bft)
27.07.2012 11:40 30,7 C 41 % 0,0 l/m 1,9 km/h (1 Bft) S 180 15,9 C 33,8 C 3,4 km/h (1 Bft)
27.07.2012 11:45 30,3 C 37 % 0,0 l/m 1,9 km/h (1 Bft) W-NW 292 14,0 C 33,8 C 3,1 km/h (1 Bft)
27.07.2012 11:50 30,3 C 37 % 0,0 l/m 2,3 km/h (1 Bft) NO 45 14,0 C 33,8 C 2,6 km/h (1 Bft)
27.07.2012 11:55 30,4 C 36 % 0,0 l/m 1,8 km/h (1 Bft) W 270 13,6 C 33,9 C 1,6 km/h (1 Bft)
27.07.2012 12:00 31,0 C 37 % 0,0 l/m 1,6 km/h (1 Bft) SW 225 14,6 C 34,2 C 2,4 km/h (1 Bft)
27.07.2012 12:05 31,2 C 37 % 0,0 l/m 1,1 km/h (1 Bft) W-NW 292 14,8 C 34,4 C 1,9 km/h (1 Bft)
27.07.2012 12:10 31,2 C 36 % 0,0 l/m 1,9 km/h (1 Bft) S-SW 202 14,3 C 34,4 C 5,0 km/h (1 Bft)
27.07.2012 12:15 31,9 C 38 % 0,0 l/m 2,4 km/h (1 Bft) S-SW 202 15,8 C 34,1 C 3,1 km/h (1 Bft)
27.07.2012 12:20 31,6 C 39 % 0,0 l/m 2,7 km/h (1 Bft) S-SW 202 15,9 C 34,0 C 5,0 km/h (1 Bft)
27.07.2012 12:25 31,2 C 36 % 0,0 l/m 2,9 km/h (1 Bft) W-NW 292 14,3 C 33,8 C 4,0 km/h (1 Bft)
27.07.2012 12:30 31,3 C 38 % 0,0 l/m 2,4 km/h (1 Bft) N 360 15,3 C 33,8 C 3,7 km/h (1 Bft)
27.07.2012 12:35 31,4 C 39 % 0,0 l/m 1,6 km/h (1 Bft) W 270 15,7 C 34,0 C 2,6 km/h (1 Bft)
27.07.2012 12:40 31,2 C 38 % 0,0 l/m 1,8 km/h (1 Bft) N-NW 337 15,2 C 34,1 C 3,1 km/h (1 Bft)
27.07.2012 12:45 31,2 C 39 % 0,0 l/m 2,4 km/h (1 Bft) O-SO 112 15,6 C 34,0 C 0,0 km/h (0 Bft)
27.07.2012 12:50 31,4 C 38 % 0,0 l/m 1,8 km/h (1 Bft) N 360 15,3 C 34,1 C 8,4 km/h (2 Bft)
27.07.2012 12:55 31,6 C 39 % 0,0 l/m 1,1 km/h (1 Bft) W-NW 292 15,9 C 35,0 C 4,7 km/h (1 Bft)
27.07.2012 13:00 31,8 C 35 % 0,0 l/m 1,3 km/h (1 Bft) S 180 14,4 C 35,1 C 3,4 km/h (1 Bft)
27.07.2012 13:05 31,8 C 37 % 0,0 l/m 2,4 km/h (1 Bft) S 180 15,3 C 34,7 C 2,7 km/h (1 Bft)
27.07.2012 13:10 31,7 C 37 % 0,0 l/m 2,7 km/h (1 Bft) O-SO 112 15,2 C 34,6 C 4,7 km/h (1 Bft)
27.07.2012 13:15 31,4 C 36 % 0,0 l/m 3,9 km/h (1 Bft) SO 135 14,5 C 34,1 C 7,1 km/h (2 Bft)
27.07.2012 13:20 31,1 C 34 % 0,0 l/m 4,8 km/h (1 Bft) O-SO 112 13,4 C 33,7 C 8,9 km/h (2 Bft)
27.07.2012 13:25 31,4 C 35 % 0,0 l/m 4,5 km/h (1 Bft) NO 45 14,1 C 33,2 C 1,6 km/h (1 Bft)
27.07.2012 13:30 31,3 C 36 % 0,0 l/m 2,7 km/h (1 Bft) O 90 14,4 C 33,7 C 0,0 km/h (0 Bft)
27.07.2012 13:35 32,1 C 37 % 0,0 l/m 1,1 km/h (1 Bft) NO 45 15,5 C 34,3 C 3,9 km/h (1 Bft)
27.07.2012 13:40 31,6 C 35 % 0,0 l/m 2,3 km/h (1 Bft) SW 225 14,2 C 34,0 C 4,5 km/h (1 Bft)
27.07.2012 13:45 31,3 C 36 % 0,0 l/m 2,7 km/h (1 Bft) W 270 14,4 C 33,8 C 2,1 km/h (1 Bft)
27.07.2012 13:50 31,1 C 36 % 0,0 l/m 1,8 km/h (1 Bft) S-SO 157 14,2 C 34,1 C 0,0 km/h (0 Bft)
27.07.2012 13:55 31,2 C 37 % 0,0 l/m 1,6 km/h (1 Bft) N-NW 337 14,8 C 34,7 C 3,7 km/h (1 Bft)
27.07.2012 14:00 31,1 C 37 % 0,0 l/m 1,8 km/h (1 Bft) S-SW 202 14,7 C 34,6 C 3,1 km/h (1 Bft)
27.07.2012 14:05 31,4 C 34 % 0,0 l/m 3,1 km/h (1 Bft) S-SO 157 13,6 C 34,5 C 4,2 km/h (1 Bft)
27.07.2012 14:10 31,8 C 37 % 0,0 l/m 2,6 km/h (1 Bft) N 360 15,3 C 34,5 C 2,3 km/h (1 Bft)
27.07.2012 14:15 31,9 C 38 % 0,0 l/m 2,9 km/h (1 Bft) O 90 15,8 C 34,6 C 2,4 km/h (1 Bft)
27.07.2012 14:20 32,3 C 38 % 0,0 l/m 3,1 km/h (1 Bft) O-SO 112 16,1 C 34,6 C 4,8 km/h (1 Bft)
27.07.2012 14:25 32,4 C 36 % 0,0 l/m 2,4 km/h (1 Bft) S-SO 157 15,4 C 34,7 C 1,9 km/h (1 Bft)
27.07.2012 14:30 32,2 C 36 % 0,0 l/m 2,6 km/h (1 Bft) S-SW 202 15,2 C 35,0 C 5,1 km/h (1 Bft)
27.07.2012 14:35 31,7 C 36 % 0,0 l/m 2,9 km/h (1 Bft) S 180 14,8 C 34,7 C 4,5 km/h (1 Bft)
27.07.2012 14:40 31,8 C 35 % 0,0 l/m 3,1 km/h (1 Bft) W-NW 292 14,4 C 34,9 C 0,0 km/h (0 Bft)
27.07.2012 14:45 32,1 C 36 % 0,0 l/m 2,7 km/h (1 Bft) S-SO 157 15,1 C 34,8 C 5,8 km/h (2 Bft)
27.07.2012 14:50 32,0 C 34 % 0,0 l/m 2,6 km/h (1 Bft) O-SO 112 14,1 C 34,7 C 2,1 km/h (1 Bft)
27.07.2012 14:55 32,2 C 34 % 0,0 l/m 2,3 km/h (1 Bft) O-SO 112 14,3 C 35,2 C 0,0 km/h (0 Bft)
27.07.2012 15:00 32,2 C 33 % 0,0 l/m 1,6 km/h (1 Bft) SO 135 13,9 C 35,5 C 4,5 km/h (1 Bft)
27.07.2012 15:05 31,9 C 34 % 0,0 l/m 1,4 km/h (1 Bft) S-SO 157 14,1 C 35,7 C 0,0 km/h (0 Bft)
27.07.2012 15:10 32,2 C 35 % 0,0 l/m 1,8 km/h (1 Bft) S-SO 157 14,8 C 36,1 C 3,4 km/h (1 Bft)
27.07.2012 15:15 31,4 C 35 % 0,0 l/m 3,1 km/h (1 Bft) S-SW 202 14,1 C 35,4 C 6,6 km/h (2 Bft)
27.07.2012 15:20 31,4 C 34 % 0,0 l/m 3,9 km/h (1 Bft) W 270 13,6 C 35,0 C 10,6 km/h (2 Bft)
27.07.2012 15:25 31,2 C 36 % 0,0 l/m 2,9 km/h (1 Bft) NW 315 14,3 C 34,9 C 0,0 km/h (0 Bft)
27.07.2012 15:30 32,0 C 34 % 0,0 l/m 1,6 km/h (1 Bft) W 270 14,1 C 35,3 C 3,7 km/h (1 Bft)
27.07.2012 15:35 32,1 C 34 % 0,0 l/m 2,1 km/h (1 Bft) S-SO 157 14,2 C 35,3 C 2,9 km/h (1 Bft)
27.07.2012 15:40 31,8 C 35 % 0,0 l/m 2,9 km/h (1 Bft) S-SW 202 14,4 C 35,2 C 3,7 km/h (1 Bft)
27.07.2012 15:45 31,5 C 34 % 0,0 l/m 2,4 km/h (1 Bft) S-SW 202 13,7 C 35,3 C 0,0 km/h (0 Bft)
27.07.2012 15:50 31,3 C 36 % 0,0 l/m 2,9 km/h (1 Bft) W 270 14,4 C 35,4 C 6,1 km/h (2 Bft)
27.07.2012 15:55 30,8 C 38 % 0,0 l/m 3,2 km/h (1 Bft) S-SW 202 14,8 C 34,3 C 8,2 km/h (2 Bft)
27.07.2012 16:00 30,5 C 37 % 0,0 l/m 3,2 km/h (1 Bft) S-SO 157 14,1 C 34,0 C 2,7 km/h (1 Bft)
27.07.2012 16:05 31,3 C 36 % 0,0 l/m 3,9 km/h (1 Bft) W 270 14,4 C 33,9 C 1,9 km/h (1 Bft)
27.07.2012 16:10 30,5 C 34 % 0,0 l/m 3,9 km/h (1 Bft) NW 315 12,8 C 33,9 C 3,2 km/h (1 Bft)
27.07.2012 16:15 30,5 C 36 % 0,0 l/m 3,1 km/h (1 Bft) W 270 13,7 C 34,0 C 4,2 km/h (1 Bft)
27.07.2012 16:20 30,7 C 36 % 0,0 l/m 2,7 km/h (1 Bft) N-NW 337 13,9 C 34,0 C 1,9 km/h (1 Bft)
27.07.2012 16:25 30,9 C 36 % 0,0 l/m 2,9 km/h (1 Bft) N-NW 337 14,1 C 34,5 C 2,7 km/h (1 Bft)
27.07.2012 16:30 30,7 C 36 % 0,0 l/m 2,7 km/h (1 Bft) S-SW 202 13,9 C 34,5 C 2,3 km/h (1 Bft)
27.07.2012 16:35 30,8 C 37 % 0,0 l/m 1,8 km/h (1 Bft) O-SO 112 14,4 C 35,4 C 4,5 km/h (1 Bft)
27.07.2012 16:40 30,7 C 37 % 0,0 l/m 1,4 km/h (1 Bft) SO 135 14,3 C 35,7 C 0,0 km/h (0 Bft)
27.07.2012 16:45 30,3 C 38 % 0,0 l/m 3,1 km/h (1 Bft) SO 135 14,4 C 35,4 C 2,3 km/h (1 Bft)
27.07.2012 16:50 29,7 C 39 % 0,0 l/m 2,7 km/h (1 Bft) O-SO 112 14,2 C 35,4 C 0,0 km/h (0 Bft)
27.07.2012 16:55 29,4 C 41 % 0,0 l/m 2,7 km/h (1 Bft) W-SW 247 14,7 C 35,4 C 4,8 km/h (1 Bft)
27.07.2012 17:00 29,4 C 41 % 0,0 l/m 3,5 km/h (1 Bft) S 180 14,7 C 34,9 C 4,5 km/h (1 Bft)
27.07.2012 17:05 29,2 C 42 % 0,0 l/m 4,2 km/h (1 Bft) SO 135 14,9 C 34,4 C 3,1 km/h (1 Bft)
27.07.2012 17:10 29,2 C 42 % 0,0 l/m 3,9 km/h (1 Bft) S 180 14,9 C 34,4 C 6,0 km/h (2 Bft)
27.07.2012 17:15 29,1 C 41 % 0,0 l/m 3,9 km/h (1 Bft) S-SW 202 14,5 C 34,2 C 3,5 km/h (1 Bft)
27.07.2012 17:20 28,8 C 43 % 0,0 l/m 3,7 km/h (1 Bft) S-SW 202 15,0 C 34,3 C 3,7 km/h (1 Bft)
27.07.2012 17:25 28,5 C 46 % 0,0 l/m 2,6 km/h (1 Bft) N-NO 22 15,7 C 34,6 C 2,4 km/h (1 Bft)
27.07.2012 17:30 28,6 C 43 % 0,0 l/m 2,3 km/h (1 Bft) W-SW 247 14,8 C 34,7 C 1,8 km/h (1 Bft)
27.07.2012 17:35 28,5 C 44 % 0,0 l/m 2,6 km/h (1 Bft) N-NW 337 15,0 C 34,6 C 2,6 km/h (1 Bft)
27.07.2012 17:40 28,3 C 46 % 0,0 l/m 2,4 km/h (1 Bft) W-NW 292 15,6 C 34,6 C 4,5 km/h (1 Bft)
27.07.2012 17:45 28,2 C 45 % 0,0 l/m 2,7 km/h (1 Bft) NW 315 15,1 C 34,6 C 5,0 km/h (1 Bft)
27.07.2012 17:50 28,2 C 47 % 0,0 l/m 3,1 km/h (1 Bft) W-NW 292 15,8 C 34,3 C 1,6 km/h (1 Bft)
27.07.2012 17:55 28,3 C 45 % 0,0 l/m 2,4 km/h (1 Bft) S-SW 202 15,2 C 34,6 C 2,6 km/h (1 Bft)
27.07.2012 18:00 28,4 C 45 % 0,0 l/m 2,1 km/h (1 Bft) S 180 15,3 C 34,6 C 2,4 km/h (1 Bft)
27.07.2012 18:05 28,2 C 43 % 0,0 l/m 1,4 km/h (1 Bft) S-SW 202 14,4 C 34,8 C 0,0 km/h (0 Bft)
27.07.2012 18:10 28,4 C 43 % 0,0 l/m 1,3 km/h (1 Bft) W-NW 292 14,6 C 35,0 C 2,4 km/h (1 Bft)
27.07.2012 18:15 28,2 C 44 % 0,0 l/m 1,6 km/h (1 Bft) SO 135 14,8 C 35,1 C 2,6 km/h (1 Bft)
27.07.2012 18:20 28,2 C 44 % 0,0 l/m 1,4 km/h (1 Bft) S-SO 157 14,8 C 34,9 C 1,8 km/h (1 Bft)
27.07.2012 18:25 27,8 C 45 % 0,0 l/m 1,1 km/h (1 Bft) O-NO 67 14,8 C 35,0 C 0,0 km/h (0 Bft)
27.07.2012 18:30 27,5 C 47 % 0,0 l/m 0,5 km/h (0 Bft) O-NO 67 15,2 C 35,3 C 0,0 km/h (0 Bft)
27.07.2012 18:35 27,4 C 46 % 0,0 l/m 0,0 km/h (0 Bft) O 90 14,7 C 35,6 C 0,0 km/h (0 Bft)
27.07.2012 18:40 27,5 C 46 % 0,0 l/m 0,0 km/h (0 Bft) N-NO 22 14,8 C 35,8 C 0,0 km/h (0 Bft)
27.07.2012 18:45 27,6 C 48 % 0,0 l/m 0,0 km/h (0 Bft) W 270 15,6 C 35,9 C 0,0 km/h (0 Bft)
27.07.2012 18:50 27,6 C 46 % 0,0 l/m 0,2 km/h (0 Bft) N-NW 337 14,9 C 35,5 C 0,0 km/h (0 Bft)
27.07.2012 18:55 27,4 C 46 % 0,0 l/m 0,2 km/h (0 Bft) N-NO 22 14,7 C 35,1 C 0,0 km/h (0 Bft)
27.07.2012 19:00 27,2 C 48 % 0,0 l/m 0,0 km/h (0 Bft) W 270 15,2 C 35,0 C 0,0 km/h (0 Bft)
27.07.2012 19:05 26,9 C 49 % 0,0 l/m 0,0 km/h (0 Bft) NO 45 15,3 C 35,2 C 0,0 km/h (0 Bft)
27.07.2012 19:10 26,8 C 50 % 0,0 l/m 0,0 km/h (0 Bft) O 90 15,5 C 34,9 C 0,0 km/h (0 Bft)
27.07.2012 19:15 26,7 C 49 % 0,0 l/m 0,0 km/h (0 Bft) N-NO 22 15,1 C 34,4 C 0,0 km/h (0 Bft)
27.07.2012 19:20 26,7 C 49 % 0,0 l/m 0,0 km/h (0 Bft) N-NO 22 15,1 C 33,8 C 0,0 km/h (0 Bft)
27.07.2012 19:25 26,6 C 49 % 0,0 l/m 0,0 km/h (0 Bft) N-NO 22 15,0 C 32,9 C 0,0 km/h (0 Bft)
27.07.2012 19:30 26,4 C 50 % 0,0 l/m 0,0 km/h (0 Bft) NO 45 15,1 C 32,4 C 0,0 km/h (0 Bft)
27.07.2012 19:35 26,4 C 50 % 0,0 l/m 0,0 km/h (0 Bft) NO 45 15,1 C 31,7 C 0,0 km/h (0 Bft)
27.07.2012 19:40 26,3 C 50 % 0,0 l/m 0,2 km/h (0 Bft) N-NO 22 15,0 C 31,3 C 0,0 km/h (0 Bft)
27.07.2012 19:45 26,3 C 50 % 0,0 l/m 0,2 km/h (0 Bft) N 360 15,0 C 30,5 C 0,0 km/h (0 Bft)
27.07.2012 19:50 26,0 C 50 % 0,0 l/m 0,0 km/h (0 Bft) NO 45 14,8 C 30,0 C 0,0 km/h (0 Bft)
27.07.2012 19:55 25,8 C 53 % 0,0 l/m 0,0 km/h (0 Bft) NO 45 15,5 C 29,3 C 0,0 km/h (0 Bft)
27.07.2012 20:00 25,5 C 55 % 0,0 l/m 0,0 km/h (0 Bft) N-NO 22 15,8 C 28,8 C 0,0 km/h (0 Bft)
27.07.2012 20:05 25,0 C 57 % 0,0 l/m 0,0 km/h (0 Bft) N 360 15,9 C 28,1 C 0,0 km/h (0 Bft)
27.07.2012 20:10 24,8 C 57 % 0,0 l/m 0,0 km/h (0 Bft) N-NO 22 15,7 C 27,7 C 0,0 km/h (0 Bft)
27.07.2012 20:15 24,4 C 58 % 0,0 l/m 0,0 km/h (0 Bft) N 360 15,6 C 26,9 C 0,0 km/h (0 Bft)
27.07.2012 20:20 24,0 C 59 % 0,0 l/m 0,0 km/h (0 Bft) N 360 15,5 C 26,3 C 0,0 km/h (0 Bft)
27.07.2012 20:25 23,7 C 59 % 0,0 l/m 0,0 km/h (0 Bft) N 360 15,2 C 25,1 C 0,0 km/h (0 Bft)
27.07.2012 20:30 23,5 C 59 % 0,0 l/m 0,0 km/h (0 Bft) NO 45 15,0 C 24,6 C 0,0 km/h (0 Bft)
27.07.2012 20:35 23,2 C 60 % 0,0 l/m 0,0 km/h (0 Bft) N 360 15,0 C 24,0 C 0,0 km/h (0 Bft)
27.07.2012 20:40 23,1 C 60 % 0,0 l/m 0,0 km/h (0 Bft) N-NO 22 14,9 C 23,5 C 0,0 km/h (0 Bft)
27.07.2012 20:45 22,6 C 62 % 0,0 l/m 0,2 km/h (0 Bft) NO 45 14,9 C 23,0 C 1,8 km/h (1 Bft)
27.07.2012 20:50 22,1 C 64 % 0,0 l/m 0,5 km/h (0 Bft) NO 45 15,0 C 22,5 C 0,0 km/h (0 Bft)
27.07.2012 20:55 21,4 C 66 % 0,0 l/m 0,3 km/h (0 Bft) N 360 14,8 C 22,0 C 0,0 km/h (0 Bft)
27.07.2012 21:00 21,2 C 66 % 0,0 l/m 0,0 km/h (0 Bft) O 90 14,6 C 21,6 C 0,0 km/h (0 Bft)
27.07.2012 21:05 20,8 C 67 % 0,0 l/m 0,0 km/h (0 Bft) N-NO 22 14,4 C 21,2 C 0,0 km/h (0 Bft)
27.07.2012 21:10 20,7 C 68 % 0,0 l/m 0,0 km/h (0 Bft) NO 45 14,6 C 20,9 C 0,0 km/h (0 Bft)
27.07.2012 21:15 20,8 C 69 % 0,0 l/m 0,0 km/h (0 Bft) N 360 14,9 C 20,6 C 0,0 km/h (0 Bft)
27.07.2012 21:20 20,7 C 70 % 0,0 l/m 0,0 km/h (0 Bft) N-NO 22 15,0 C 20,5 C 0,0 km/h (0 Bft)
27.07.2012 21:25 20,3 C 70 % 0,0 l/m 0,0 km/h (0 Bft) W-NW 292 14,6 C 20,3 C 0,0 km/h (0 Bft)
27.07.2012 21:30 20,0 C 71 % 0,0 l/m 0,0 km/h (0 Bft) N 360 14,6 C 20,1 C 0,0 km/h (0 Bft)
27.07.2012 21:35 20,3 C 71 % 0,0 l/m 0,0 km/h (0 Bft) NO 45 14,9 C 19,9 C 0,0 km/h (0 Bft)
27.07.2012 21:40 20,0 C 71 % 0,0 l/m 0,0 km/h (0 Bft) S 180 14,6 C 19,9 C 0,0 km/h (0 Bft)
27.07.2012 21:45 19,5 C 73 % 0,0 l/m 0,0 km/h (0 Bft) N-NO 22 14,5 C 19,6 C 0,0 km/h (0 Bft)
27.07.2012 21:50 19,7 C 75 % 0,0 l/m 0,0 km/h (0 Bft) W-SW 247 15,1 C 19,4 C 0,0 km/h (0 Bft)
27.07.2012 21:55 19,4 C 74 % 0,0 l/m 0,0 km/h (0 Bft) O-NO 67 14,6 C 19,3 C 0,0 km/h (0 Bft)
27.07.2012 22:00 19,1 C 74 % 0,0 l/m 0,0 km/h (0 Bft) S-SW 202 14,4 C 19,3 C 0,0 km/h (0 Bft)
27.07.2012 22:05 19,0 C 75 % 0,0 l/m 0,0 km/h (0 Bft) O-NO 67 14,5 C 19,1 C 0,0 km/h (0 Bft)
27.07.2012 22:10 19,0 C 75 % 0,0 l/m 0,0 km/h (0 Bft) S 180 14,5 C 19,0 C 0,0 km/h (0 Bft)
27.07.2012 22:15 18,6 C 76 % 0,0 l/m 0,0 km/h (0 Bft) NO 45 14,3 C 18,8 C 0,0 km/h (0 Bft)
27.07.2012 22:20 18,6 C 77 % 0,0 l/m 0,0 km/h (0 Bft) N-NW 337 14,5 C 18,7 C 0,0 km/h (0 Bft)
27.07.2012 22:25 18,6 C 78 % 0,0 l/m 0,0 km/h (0 Bft) W 270 14,7 C 18,7 C 0,0 km/h (0 Bft)
27.07.2012 22:30 18,5 C 77 % 0,0 l/m 0,0 km/h (0 Bft) W 270 14,4 C 18,7 C 0,0 km/h (0 Bft)
27.07.2012 22:35 18,4 C 78 % 0,0 l/m 0,0 km/h (0 Bft) N-NO 22 14,5 C 18,5 C 0,0 km/h (0 Bft)
27.07.2012 22:40 18,4 C 77 % 0,0 l/m 0,0 km/h (0 Bft) S 180 14,3 C 18,5 C 0,0 km/h (0 Bft)
27.07.2012 22:45 18,2 C 78 % 0,0 l/m 0,0 km/h (0 Bft) O-SO 112 14,3 C 18,5 C 0,0 km/h (0 Bft)
27.07.2012 22:50 18,2 C 78 % 0,0 l/m 0,0 km/h (0 Bft) SO 135 14,3 C 18,3 C 0,0 km/h (0 Bft)
27.07.2012 22:55 18,1 C 79 % 0,0 l/m 0,0 km/h (0 Bft) N 360 14,4 C 18,2 C 0,0 km/h (0 Bft)
27.07.2012 23:00 18,3 C 79 % 0,0 l/m 0,0 km/h (0 Bft) NO 45 14,6 C 18,2 C 0,0 km/h (0 Bft)
27.07.2012 23:05 19,5 C 79 % 0,0 l/m 1,9 km/h (1 Bft) O-SO 112 15,8 C 18,9 C 6,6 km/h (2 Bft)
27.07.2012 23:10 19,6 C 78 % 0,0 l/m 2,9 km/h (1 Bft) O-SO 112 15,7 C 19,5 C 1,8 km/h (1 Bft)
27.07.2012 23:15 19,8 C 77 % 0,0 l/m 1,8 km/h (1 Bft) N 360 15,6 C 19,8 C 0,0 km/h (0 Bft)
27.07.2012 23:20 20,2 C 75 % 0,0 l/m 1,6 km/h (1 Bft) NO 45 15,6 C 20,0 C 2,7 km/h (1 Bft)
27.07.2012 23:25 21,0 C 71 % 0,0 l/m 4,3 km/h (1 Bft) N 360 15,5 C 20,7 C 8,9 km/h (2 Bft)
27.07.2012 23:30 21,2 C 70 % 0,0 l/m 6,1 km/h (2 Bft) O-SO 112 15,5 C 21,4 C 12,4 km/h (3 Bft)
27.07.2012 23:35 21,3 C 69 % 0,0 l/m 7,2 km/h (2 Bft) N 360 15,4 C 21,7 C 2,1 km/h (1 Bft)
27.07.2012 23:40 21,5 C 64 % 0,0 l/m 8,5 km/h (2 Bft) O-SO 112 14,4 C 21,5 C 20,4 km/h (4 Bft)
27.07.2012 23:45 21,9 C 59 % 0,0 l/m 10,3 km/h (2 Bft) SO 135 13,5 C 21,3 C 17,1 km/h (3 Bft)
27.07.2012 23:50 21,6 C 58 % 0,0 l/m 9,3 km/h (2 Bft) O 90 13,0 C 21,6 C 24,9 km/h (4 Bft)
27.07.2012 23:55 21,8 C 55 % 0,0 l/m 5,6 km/h (1 Bft) S 180 12,4 C 22,6 C 5,5 km/h (1 Bft)
_ Min-Zeit 05:50 15:00 - 23:00 - - 05:50 06:00 23:15
Minimum _ 12,0 C 33 % - 0,0 km/h (0 Bft) - - 10,1 C 11,9 C 0,0 km/h (0 Bft)
_ Max-Zeit 14:25 06:20 23:55 23:45 - - 10:10 15:10 23:50
Maximum _ 32,4 C 89 % 0,0 l/m 10,3 km/h
SO (2 Bft)
- - 17,4 C 36,1 C 24,9 km/h
O (4 Bft)
Durchschnitt _ 23,2 C 60 % #0,0 l/m 1,1 km/h (1 Bft) S-SW - 14,0 C 25,4 C 1,5 km/h (1 Bft)